Time;durP1;ratioP1;P1;durP2;ratioP2;P2;SDS_P1;SDS_P2;PMS_P1;PMS_P2;Temp;Humidity;BMP_temperature;BMP_pressure;BME280_temperature;BME280_humidity;BME280_pressure;Samples;Min_cycle;Max_cycle;Signal;HPM_P1;HPM_P2
2021/11/29 00:01:44;;;;;;;9.07;4.75;;;;;;;;;;5042552;28;20053;-65
2021/11/29 00:04:11;;;;;;;13.38;4.95;;;;;;;;;;5054400;28;20075;-66
2021/11/29 00:06:37;;;;;;;12.02;5.57;;;;;;;;;;5047937;28;20055;-66
2021/11/29 00:09:04;;;;;;;10.20;4.43;;;;;;;;;;5039995;28;20167;-66
2021/11/29 00:11:30;;;;;;;11.98;3.90;;;;;;;;;;5054105;28;20060;-66
2021/11/29 00:13:56;;;;;;;10.57;4.00;;;;;;;;;;5053667;28;20052;-66
2021/11/29 00:16:23;;;;;;;13.18;3.53;;;;;;;;;;5055955;28;20139;-66
2021/11/29 00:18:49;;;;;;;10.95;3.80;;;;;;;;;;5051976;28;20048;-66
2021/11/29 00:21:16;;;;;;;12.15;3.50;;;;;;;;;;5061151;28;20362;-66
2021/11/29 00:23:45;;;;;;;5.68;3.15;;;;;;;;;;5052108;28;20225;-66
2021/11/29 00:26:13;;;;;;;11.55;3.47;;;;;;;;;;5058691;28;20044;-66
2021/11/29 00:28:42;;;;;;;8.07;2.92;;;;;;;;;;5043581;28;20080;-65
2021/11/29 00:31:08;;;;;;;7.18;3.28;;;;;;;;;;5054605;28;20083;-65
2021/11/29 00:33:35;;;;;;;8.77;2.90;;;;;;;;;;5053828;28;20048;-65
2021/11/29 00:36:02;;;;;;;4.90;2.35;;;;;;;;;;5058605;28;20147;-66
2021/11/29 00:38:29;;;;;;;3.53;1.88;;;;;;;;;;5059993;28;20052;-65
2021/11/29 00:40:55;;;;;;;10.98;1.92;;;;;;;;;;5050948;28;20071;-65
2021/11/29 00:43:21;;;;;;;6.60;1.88;;;;;;;;;;5053065;28;20107;-65
2021/11/29 00:45:48;;;;;;;5.70;2.50;;;;;;;;;;5050160;28;20048;-65
2021/11/29 00:48:14;;;;;;;5.25;1.80;;;;;;;;;;5039244;28;20489;-65
2021/11/29 00:50:41;;;;;;;3.63;1.50;;;;;;;;;;5050984;28;20075;-67
2021/11/29 00:53:08;;;;;;;6.63;1.73;;;;;;;;;;5058619;28;20055;-66
2021/11/29 00:55:35;;;;;;;5.28;1.73;;;;;;;;;;5054034;28;20125;-65
2021/11/29 00:58:01;;;;;;;5.05;1.92;;;;;;;;;;5046907;28;20051;-65
2021/11/29 01:00:28;;;;;;;7.85;1.85;;;;;;;;;;5058917;28;20687;-66
2021/11/29 01:02:55;;;;;;;4.88;1.60;;;;;;;;;;5050611;28;20074;-65
2021/11/29 01:05:22;;;;;;;2.75;1.50;;;;;;;;;;5057377;28;20070;-66
2021/11/29 01:07:49;;;;;;;2.67;1.27;;;;;;;;;;5056470;28;20048;-66
2021/11/29 01:10:16;;;;;;;5.50;1.10;;;;;;;;;;5050452;28;20078;-66
2021/11/29 01:12:43;;;;;;;6.28;1.33;;;;;;;;;;5057314;28;20048;-65
2021/11/29 01:15:11;;;;;;;3.97;1.30;;;;;;;;;;5049729;28;20429;-65
2021/11/29 01:17:38;;;;;;;3.67;1.10;;;;;;;;;;5058814;28;20045;-65
2021/11/29 01:20:05;;;;;;;4.90;1.00;;;;;;;;;;5050686;28;20048;-64
2021/11/29 01:22:32;;;;;;;4.55;1.00;;;;;;;;;;5053505;28;20072;-65
2021/11/29 01:24:59;;;;;;;3.72;0.93;;;;;;;;;;5054249;28;20516;-65
2021/11/29 01:27:25;;;;;;;2.42;1.13;;;;;;;;;;5050402;28;21513;-65
2021/11/29 01:29:52;;;;;;;2.38;0.98;;;;;;;;;;5057545;28;20417;-65
2021/11/29 01:32:18;;;;;;;3.20;0.88;;;;;;;;;;5050547;28;20258;-64
2021/11/29 01:34:44;;;;;;;3.80;0.98;;;;;;;;;;5058680;28;20079;-66
2021/11/29 01:37:11;;;;;;;3.90;1.10;;;;;;;;;;5046629;28;20542;-65
2021/11/29 01:39:37;;;;;;;2.88;1.23;;;;;;;;;;5052912;28;20048;-66
2021/11/29 01:42:06;;;;;;;7.57;1.48;;;;;;;;;;5059293;28;20706;-66
2021/11/29 01:44:32;;;;;;;5.72;1.17;;;;;;;;;;5050958;28;20044;-66
2021/11/29 01:46:59;;;;;;;2.50;0.90;;;;;;;;;;5058030;28;20048;-66
2021/11/29 01:49:25;;;;;;;4.18;0.80;;;;;;;;;;5049280;28;20202;-66
2021/11/29 01:51:52;;;;;;;4.90;0.90;;;;;;;;;;5049492;28;20056;-66
2021/11/29 01:54:18;;;;;;;2.17;0.70;;;;;;;;;;5049639;28;20044;-66
2021/11/29 01:56:46;;;;;;;2.28;1.23;;;;;;;;;;5057354;28;20071;-66
2021/11/29 01:59:12;;;;;;;3.58;0.88;;;;;;;;;;5059249;28;20055;-66
2021/11/29 02:01:38;;;;;;;3.38;0.82;;;;;;;;;;5050197;28;20071;-67
2021/11/29 02:04:08;;;;;;;2.65;0.82;;;;;;;;;;5052525;28;20053;-67
2021/11/29 02:06:34;;;;;;;4.70;0.85;;;;;;;;;;5044370;28;20048;-66
2021/11/29 02:09:02;;;;;;;1.20;0.80;;;;;;;;;;5067313;28;20062;-67
2021/11/29 02:11:28;;;;;;;4.10;1.17;;;;;;;;;;5067139;28;20503;-67
2021/11/29 02:13:56;;;;;;;4.70;1.23;;;;;;;;;;5087672;28;20047;-67
2021/11/29 02:16:23;;;;;;;6.85;1.27;;;;;;;;;;5087979;28;20048;-67
2021/11/29 02:18:49;;;;;;;2.47;0.80;;;;;;;;;;5075623;28;20398;-67
2021/11/29 02:21:20;;;;;;;3.42;1.20;;;;;;;;;;5083151;28;20811;-67
2021/11/29 02:23:49;;;;;;;8.52;1.13;;;;;;;;;;5081317;28;20056;-68
2021/11/29 02:26:17;;;;;;;5.88;1.30;;;;;;;;;;5088136;28;20072;-67
2021/11/29 02:28:45;;;;;;;2.13;1.02;;;;;;;;;;5080057;28;20055;-68
2021/11/29 02:31:14;;;;;;;3.95;1.00;;;;;;;;;;5085618;28;20055;-68
2021/11/29 02:33:41;;;;;;;2.60;1.08;;;;;;;;;;5075211;28;20409;-68
2021/11/29 02:36:08;;;;;;;3.67;0.98;;;;;;;;;;5086387;28;20154;-67
2021/11/29 02:38:36;;;;;;;2.97;1.05;;;;;;;;;;5087271;28;20055;-68
2021/11/29 02:41:03;;;;;;;2.63;0.90;;;;;;;;;;5081803;28;20161;-68
2021/11/29 02:43:29;;;;;;;2.35;0.73;;;;;;;;;;5088020;28;20485;-68
2021/11/29 02:45:56;;;;;;;2.78;1.00;;;;;;;;;;5060133;28;20055;-68
2021/11/29 02:48:38;;;;;;;2.65;1.10;;;;;;;;;;5062807;28;20060;-67
2021/11/29 02:51:04;;;;;;;5.88;1.15;;;;;;;;;;5060962;28;20059;-69
2021/11/29 02:53:31;;;;;;;4.25;0.80;;;;;;;;;;5067442;28;20049;-68
2021/11/29 02:55:57;;;;;;;4.25;0.98;;;;;;;;;;5066655;28;20580;-68
2021/11/29 02:58:23;;;;;;;3.85;0.63;;;;;;;;;;5059310;28;20059;-68
2021/11/29 03:00:50;;;;;;;1.65;0.93;;;;;;;;;;5059411;28;20044;-69
2021/11/29 03:03:16;;;;;;;2.53;0.80;;;;;;;;;;5061119;28;20072;-67
2021/11/29 03:05:46;;;;;;;4.45;1.00;;;;;;;;;;5065742;28;20037;-67
2021/11/29 03:08:13;;;;;;;5.65;1.17;;;;;;;;;;5060085;28;20548;-67
2021/11/29 03:10:41;;;;;;;2.10;0.70;;;;;;;;;;5067010;28;20045;-68
2021/11/29 03:13:07;;;;;;;1.63;0.80;;;;;;;;;;5082273;28;20284;-68
2021/11/29 03:15:34;;;;;;;2.42;0.82;;;;;;;;;;5076453;28;20052;-67
2021/11/29 03:18:00;;;;;;;4.25;0.73;;;;;;;;;;5087280;28;20059;-67
2021/11/29 03:20:26;;;;;;;1.30;0.70;;;;;;;;;;5080124;28;20753;-67
2021/11/29 03:22:53;;;;;;;3.40;0.80;;;;;;;;;;5059941;28;20354;-67
2021/11/29 03:25:19;;;;;;;2.50;0.70;;;;;;;;;;5060437;28;20045;-67
2021/11/29 03:27:45;;;;;;;2.90;0.70;;;;;;;;;;5059659;28;20055;-67
2021/11/29 03:30:12;;;;;;;1.15;0.55;;;;;;;;;;5064120;28;20052;-68
2021/11/29 03:32:38;;;;;;;2.45;0.55;;;;;;;;;;5059139;28;20055;-68
2021/11/29 03:35:06;;;;;;;2.35;0.60;;;;;;;;;;5066298;28;20527;-67
2021/11/29 03:37:32;;;;;;;2.85;0.75;;;;;;;;;;5059661;28;20472;-68
2021/11/29 03:39:59;;;;;;;1.15;0.52;;;;;;;;;;5062708;28;20087;-68
2021/11/29 03:42:25;;;;;;;0.55;0.43;;;;;;;;;;5056056;28;20075;-68
2021/11/29 03:44:51;;;;;;;2.78;0.60;;;;;;;;;;5067873;28;20397;-68
2021/11/29 03:47:18;;;;;;;4.63;1.00;;;;;;;;;;5070737;28;20064;-68
2021/11/29 03:49:45;;;;;;;1.75;0.60;;;;;;;;;;5063885;28;20052;-68
2021/11/29 03:52:11;;;;;;;1.15;0.60;;;;;;;;;;5070737;28;20055;-68
2021/11/29 03:54:38;;;;;;;1.98;0.70;;;;;;;;;;5058953;28;20057;-67
2021/11/29 03:57:04;;;;;;;3.45;0.60;;;;;;;;;;5052592;28;20052;-67
2021/11/29 03:59:30;;;;;;;0.88;0.60;;;;;;;;;;5044451;28;20490;-67
2021/11/29 04:01:57;;;;;;;0.50;0.50;;;;;;;;;;5050680;28;20049;-67
2021/11/29 04:04:23;;;;;;;1.25;0.40;;;;;;;;;;5047961;28;20052;-68
2021/11/29 04:06:50;;;;;;;2.28;0.70;;;;;;;;;;5044483;28;20045;-67
2021/11/29 04:09:16;;;;;;;1.33;0.50;;;;;;;;;;5043064;28;20045;-68
2021/11/29 04:11:42;;;;;;;2.55;0.88;;;;;;;;;;5058625;28;20044;-67
2021/11/29 04:14:09;;;;;;;0.50;0.50;;;;;;;;;;5077814;28;20071;-67
2021/11/29 04:16:35;;;;;;;1.35;0.80;;;;;;;;;;5061993;28;20048;-68
2021/11/29 04:19:02;;;;;;;2.97;1.00;;;;;;;;;;5070982;28;20405;-68
2021/11/29 04:21:29;;;;;;;3.80;0.88;;;;;;;;;;5079127;28;20252;-67
2021/11/29 04:23:55;;;;;;;2.42;0.90;;;;;;;;;;5084734;28;20058;-67
2021/11/29 04:26:21;;;;;;;1.95;0.80;;;;;;;;;;5089867;28;20051;-68
2021/11/29 04:28:50;;;;;;;2.17;0.90;;;;;;;;;;5082741;28;20158;-68
2021/11/29 04:31:17;;;;;;;2.63;1.20;;;;;;;;;;5075616;28;20060;-67
2021/11/29 04:33:44;;;;;;;2.15;1.33;;;;;;;;;;5063790;28;20056;-68
2021/11/29 04:36:10;;;;;;;4.40;1.08;;;;;;;;;;5046177;28;20059;-67
2021/11/29 04:38:37;;;;;;;3.72;1.38;;;;;;;;;;5059069;28;20565;-67
2021/11/29 04:41:03;;;;;;;16.33;1.48;;;;;;;;;;5069522;28;20136;-68
2021/11/29 04:43:30;;;;;;;4.88;1.38;;;;;;;;;;5068907;28;20401;-67
2021/11/29 04:45:56;;;;;;;3.35;1.20;;;;;;;;;;5062873;28;20590;-67
2021/11/29 04:48:23;;;;;;;3.72;1.20;;;;;;;;;;5067337;28;20044;-67
2021/11/29 04:50:49;;;;;;;4.15;1.67;;;;;;;;;;5056360;28;20512;-68
2021/11/29 04:53:15;;;;;;;5.85;1.40;;;;;;;;;;5069458;28;20056;-68
2021/11/29 04:55:42;;;;;;;1.58;0.88;;;;;;;;;;5060866;28;20493;-68
2021/11/29 04:58:08;;;;;;;3.03;1.05;;;;;;;;;;5069087;28;20435;-67
2021/11/29 05:00:34;;;;;;;2.00;1.30;;;;;;;;;;5069006;28;20312;-67
2021/11/29 05:03:01;;;;;;;5.38;1.27;;;;;;;;;;5059094;28;20127;-67
2021/11/29 05:05:27;;;;;;;3.92;1.20;;;;;;;;;;5063080;28;20087;-67
2021/11/29 05:08:14;;;;;;;4.03;1.20;;;;;;;;;;5062882;28;20529;-67
2021/11/29 05:10:41;;;;;;;4.07;1.20;;;;;;;;;;5068518;28;20056;-67
2021/11/29 05:13:07;;;;;;;2.10;1.00;;;;;;;;;;5081552;28;20075;-67
2021/11/29 05:15:33;;;;;;;4.90;1.40;;;;;;;;;;5087262;28;20040;-68
2021/11/29 05:18:00;;;;;;;2.55;1.10;;;;;;;;;;5080351;28;20082;-67
2021/11/29 05:20:27;;;;;;;6.95;1.70;;;;;;;;;;5085416;28;20048;-67
2021/11/29 05:22:53;;;;;;;5.72;1.23;;;;;;;;;;5089264;28;20058;-67
2021/11/29 05:25:19;;;;;;;5.35;1.15;;;;;;;;;;5082813;28;20052;-67
2021/11/29 05:27:46;;;;;;;5.22;1.30;;;;;;;;;;5088895;28;20048;-67
2021/11/29 05:30:12;;;;;;;2.90;1.23;;;;;;;;;;5075380;28;20056;-67
2021/11/29 05:32:39;;;;;;;4.93;1.33;;;;;;;;;;5067947;28;20052;-67
2021/11/29 05:35:06;;;;;;;3.25;1.27;;;;;;;;;;5062245;28;20067;-67
2021/11/29 05:37:32;;;;;;;6.40;1.13;;;;;;;;;;5068584;28;20553;-67
2021/11/29 05:39:58;;;;;;;3.33;1.20;;;;;;;;;;5064372;28;20049;-67
2021/11/29 05:42:41;;;;;;;5.00;1.45;;;;;;;;;;5057160;28;20052;-67
2021/11/29 05:45:08;;;;;;;4.35;1.08;;;;;;;;;;5068742;28;20052;-67
2021/11/29 05:47:34;;;;;;;2.17;1.40;;;;;;;;;;5062019;28;20512;-68
2021/11/29 05:50:01;;;;;;;2.75;1.25;;;;;;;;;;5068842;28;20358;-68
2021/11/29 05:52:27;;;;;;;3.67;1.40;;;;;;;;;;5061124;28;20055;-68
2021/11/29 05:54:53;;;;;;;2.45;1.30;;;;;;;;;;5059899;28;20060;-68
2021/11/29 05:57:20;;;;;;;9.27;1.75;;;;;;;;;;5061950;28;20052;-68
2021/11/29 05:59:47;;;;;;;3.92;1.50;;;;;;;;;;5066834;28;20537;-68
2021/11/29 06:02:13;;;;;;;2.35;1.40;;;;;;;;;;5055200;28;20045;-68
2021/11/29 06:04:39;;;;;;;4.70;1.30;;;;;;;;;;5037997;28;20593;-68
2021/11/29 06:07:06;;;;;;;2.95;1.52;;;;;;;;;;5045257;28;20048;-67
2021/11/29 06:09:33;;;;;;;8.73;1.95;;;;;;;;;;5041590;28;20045;-67
2021/11/29 06:11:59;;;;;;;3.50;1.23;;;;;;;;;;5072271;28;20060;-68
2021/11/29 06:14:26;;;;;;;5.95;1.45;;;;;;;;;;5081929;28;20060;-67
2021/11/29 06:16:53;;;;;;;5.75;1.63;;;;;;;;;;5086237;28;20060;-67
2021/11/29 06:19:19;;;;;;;5.30;1.70;;;;;;;;;;5087624;28;20695;-67
2021/11/29 06:21:46;;;;;;;4.63;1.88;;;;;;;;;;5056108;28;20049;-67
2021/11/29 06:24:12;;;;;;;5.47;1.83;;;;;;;;;;5049761;28;20390;-67
2021/11/29 06:26:39;;;;;;;5.90;1.77;;;;;;;;;;5060520;28;20040;-67
2021/11/29 06:29:05;;;;;;;4.78;1.90;;;;;;;;;;5067577;28;20052;-67
2021/11/29 06:31:32;;;;;;;10.50;2.47;;;;;;;;;;5058198;28;20053;-67
2021/11/29 06:33:58;;;;;;;7.65;2.10;;;;;;;;;;5047966;28;20134;-67
2021/11/29 06:36:26;;;;;;;5.72;2.50;;;;;;;;;;5050919;28;20060;-68
2021/11/29 06:38:54;;;;;;;2.90;1.77;;;;;;;;;;5039965;28;20056;-67
2021/11/29 06:41:20;;;;;;;11.38;2.40;;;;;;;;;;5054364;28;20045;-67
2021/11/29 06:43:47;;;;;;;6.65;2.30;;;;;;;;;;5060360;28;20055;-67
2021/11/29 06:46:13;;;;;;;7.32;2.22;;;;;;;;;;5067392;28;20044;-68
2021/11/29 06:48:40;;;;;;;7.20;2.75;;;;;;;;;;5056033;28;20091;-67
2021/11/29 06:51:07;;;;;;;5.95;2.75;;;;;;;;;;5061535;28;20048;-67
2021/11/29 06:53:34;;;;;;;6.40;3.03;;;;;;;;;;5045737;28;20052;-67
2021/11/29 06:56:01;;;;;;;5.70;3.13;;;;;;;;;;5060620;28;20143;-68
2021/11/29 06:58:28;;;;;;;6.93;2.85;;;;;;;;;;5066839;28;20070;-67
2021/11/29 07:00:58;;;;;;;3.63;2.38;;;;;;;;;;5058560;28;20565;-67
2021/11/29 07:03:24;;;;;;;6.97;3.20;;;;;;;;;;5056936;28;20650;-67
2021/11/29 07:05:51;;;;;;;7.13;3.20;;;;;;;;;;5045289;28;20410;-67
2021/11/29 07:08:18;;;;;;;14.10;3.28;;;;;;;;;;5050510;28;20509;-68
2021/11/29 07:10:46;;;;;;;8.18;3.25;;;;;;;;;;5054434;28;20052;-67
2021/11/29 07:13:15;;;;;;;8.38;3.25;;;;;;;;;;5056826;28;20119;-67
2021/11/29 07:15:42;;;;;;;6.85;3.20;;;;;;;;;;5062014;28;20238;-67
2021/11/29 07:18:09;;;;;;;7.20;3.05;;;;;;;;;;5055023;28;20048;-67
2021/11/29 07:20:35;;;;;;;8.50;3.20;;;;;;;;;;5079008;28;20048;-67
2021/11/29 07:23:02;;;;;;;5.00;2.92;;;;;;;;;;5044874;28;20052;-67
2021/11/29 07:25:28;;;;;;;5.00;2.90;;;;;;;;;;5066748;28;20052;-67
2021/11/29 07:27:55;;;;;;;5.15;2.80;;;;;;;;;;5061449;28;20052;-67
2021/11/29 07:30:22;;;;;;;8.52;3.45;;;;;;;;;;5060742;28;20451;-67
2021/11/29 07:32:49;;;;;;;7.93;3.05;;;;;;;;;;5051312;28;20066;-67
2021/11/29 07:35:15;;;;;;;6.25;2.55;;;;;;;;;;5040996;28;20079;-67
2021/11/29 07:37:42;;;;;;;7.70;2.97;;;;;;;;;;5045237;28;20425;-67
2021/11/29 07:40:09;;;;;;;8.02;3.30;;;;;;;;;;5042890;28;20056;-67
2021/11/29 07:42:35;;;;;;;9.13;2.90;;;;;;;;;;5065482;28;20071;-67
2021/11/29 07:45:03;;;;;;;6.80;2.80;;;;;;;;;;5052877;28;20048;-67
2021/11/29 07:47:29;;;;;;;11.05;3.83;;;;;;;;;;5063306;28;20839;-68
2021/11/29 07:49:56;;;;;;;8.35;3.60;;;;;;;;;;5060426;28;20056;-67
2021/11/29 07:52:22;;;;;;;8.05;3.05;;;;;;;;;;5051373;28;20139;-67
2021/11/29 07:54:49;;;;;;;4.88;2.58;;;;;;;;;;5045930;28;20052;-67
2021/11/29 07:57:17;;;;;;;7.35;2.55;;;;;;;;;;5037577;28;20060;-67
2021/11/29 07:59:44;;;;;;;5.50;2.60;;;;;;;;;;5046663;28;20040;-68
2021/11/29 08:02:17;;;;;;;9.30;2.95;;;;;;;;;;5058699;28;20091;-67
2021/11/29 08:04:43;;;;;;;4.93;2.72;;;;;;;;;;5063286;28;20048;-67
2021/11/29 08:07:10;;;;;;;9.95;2.92;;;;;;;;;;5064283;28;20382;-67
2021/11/29 08:09:36;;;;;;;6.45;2.25;;;;;;;;;;5053216;28;20044;-67
2021/11/29 08:12:03;;;;;;;7.45;2.28;;;;;;;;;;5071232;28;20692;-67
2021/11/29 08:14:29;;;;;;;11.75;2.53;;;;;;;;;;5058002;28;20057;-67
2021/11/29 08:16:55;;;;;;;10.93;2.42;;;;;;;;;;5063302;28;20063;-67
2021/11/29 08:19:22;;;;;;;7.93;2.47;;;;;;;;;;5022764;28;21275;-67
2021/11/29 08:21:48;;;;;;;5.55;2.60;;;;;;;;;;5054019;28;20056;-67
2021/11/29 08:24:14;;;;;;;12.90;2.63;;;;;;;;;;5048826;28;20047;-67
2021/11/29 08:26:40;;;;;;;7.35;3.08;;;;;;;;;;5047892;28;20059;-67
2021/11/29 08:29:08;;;;;;;8.82;1.98;;;;;;;;;;5051883;28;20063;-67
2021/11/29 08:31:34;;;;;;;11.32;2.65;;;;;;;;;;5032105;28;20063;-66
2021/11/29 08:34:01;;;;;;;7.93;2.40;;;;;;;;;;5060676;28;20507;-67
2021/11/29 08:36:27;;;;;;;8.35;2.50;;;;;;;;;;5052279;28;20571;-67
2021/11/29 08:38:53;;;;;;;9.35;3.53;;;;;;;;;;5056722;28;20044;-67
2021/11/29 08:41:21;;;;;;;8.85;3.00;;;;;;;;;;5046168;28;20056;-67
2021/11/29 08:43:48;;;;;;;7.57;3.05;;;;;;;;;;5060218;28;20060;-67
2021/11/29 08:46:14;;;;;;;12.10;4.00;;;;;;;;;;5062309;28;20059;-67
2021/11/29 08:48:41;;;;;;;7.35;2.65;;;;;;;;;;5054738;28;20048;-66
2021/11/29 08:51:07;;;;;;;4.60;2.17;;;;;;;;;;5061791;28;20053;-67
2021/11/29 08:53:37;;;;;;;5.53;2.55;;;;;;;;;;5049960;28;20044;-67
2021/11/29 08:56:03;;;;;;;5.57;2.40;;;;;;;;;;5056625;28;20055;-67
2021/11/29 08:58:30;;;;;;;6.70;2.30;;;;;;;;;;5055003;28;20896;-66
2021/11/29 09:00:57;;;;;;;6.65;2.47;;;;;;;;;;5059138;28;20071;-67
2021/11/29 09:03:23;;;;;;;5.47;2.10;;;;;;;;;;5058176;28;20088;-66
2021/11/29 09:05:50;;;;;;;7.35;2.22;;;;;;;;;;5052471;28;20118;-66
2021/11/29 09:08:16;;;;;;;9.90;3.13;;;;;;;;;;5056931;28;20110;-66
2021/11/29 09:10:44;;;;;;;6.93;2.17;;;;;;;;;;5026572;28;20048;-67
2021/11/29 09:13:31;;;;;;;3.95;1.55;;;;;;;;;;5061399;28;20060;-67
2021/11/29 09:16:00;;;;;;;4.45;1.60;;;;;;;;;;5053532;28;20083;-67
2021/11/29 09:18:28;;;;;;;6.68;1.60;;;;;;;;;;5060611;28;20147;-67
2021/11/29 09:20:55;;;;;;;6.22;1.67;;;;;;;;;;5051847;28;20072;-66
2021/11/29 09:23:22;;;;;;;5.38;1.65;;;;;;;;;;5060477;28;20413;-66
2021/11/29 09:25:48;;;;;;;9.68;1.83;;;;;;;;;;5061210;28;20422;-67
2021/11/29 09:28:15;;;;;;;7.95;1.55;;;;;;;;;;5052261;28;20394;-67
2021/11/29 09:30:42;;;;;;;5.47;1.27;;;;;;;;;;5058206;28;20049;-67
2021/11/29 09:33:09;;;;;;;7.45;1.70;;;;;;;;;;5028573;28;20056;-66
2021/11/29 09:35:36;;;;;;;6.55;1.33;;;;;;;;;;5056888;28;20131;-66
2021/11/29 09:38:02;;;;;;;4.80;0.90;;;;;;;;;;5051980;28;20040;-66
2021/11/29 09:40:33;;;;;;;8.38;1.30;;;;;;;;;;5057876;28;20063;-67
2021/11/29 09:43:00;;;;;;;4.95;1.10;;;;;;;;;;5052352;28;20052;-66
2021/11/29 09:45:27;;;;;;;4.75;1.30;;;;;;;;;;5044403;28;20522;-66
2021/11/29 09:47:54;;;;;;;5.68;1.10;;;;;;;;;;5059119;28;20044;-67
2021/11/29 09:50:20;;;;;;;6.53;1.00;;;;;;;;;;5050256;28;20044;-66
2021/11/29 09:52:47;;;;;;;6.10;1.27;;;;;;;;;;5039643;28;20478;-67
2021/11/29 09:55:15;;;;;;;2.95;1.23;;;;;;;;;;5051258;28;20044;-66
2021/11/29 09:57:43;;;;;;;2.78;0.93;;;;;;;;;;5050212;28;20181;-66
2021/11/29 10:00:11;;;;;;;4.38;1.00;;;;;;;;;;5056272;28;20045;-67
2021/11/29 10:02:37;;;;;;;4.18;1.15;;;;;;;;;;5050300;28;20060;-66
2021/11/29 10:05:04;;;;;;;4.03;0.98;;;;;;;;;;5057497;28;20054;-67
2021/11/29 10:07:33;;;;;;;2.25;0.90;;;;;;;;;;5051273;28;20051;-66
2021/11/29 10:10:10;;;;;;;2.33;0.90;;;;;;;;;;5056140;28;20060;-66
2021/11/29 10:12:36;;;;;;;3.28;0.98;;;;;;;;;;5048710;28;20052;-66
2021/11/29 10:15:09;;;;;;;4.95;1.00;;;;;;;;;;5059135;28;20071;-66
2021/11/29 10:17:35;;;;;;;4.97;1.00;;;;;;;;;;5059736;28;20070;-67
2021/11/29 10:20:18;;;;;;;2.80;0.90;;;;;;;;;;5057620;28;20056;-66
2021/11/29 10:22:58;;;;;;;4.18;0.85;;;;;;;;;;5058795;28;20045;-66
2021/11/29 10:25:24;;;;;;;4.28;1.15;;;;;;;;;;5045273;28;20058;-66
2021/11/29 10:27:51;;;;;;;6.00;1.15;;;;;;;;;;5055063;28;20426;-67
2021/11/29 10:30:19;;;;;;;3.95;1.15;;;;;;;;;;5053830;28;20059;-67
2021/11/29 10:32:47;;;;;;;5.73;0.80;;;;;;;;;;5057626;28;20837;-66
2021/11/29 10:35:20;;;;;;;4.93;1.27;;;;;;;;;;5050410;28;20059;-66
2021/11/29 10:37:48;;;;;;;2.83;0.90;;;;;;;;;;5053555;28;20052;-66
2021/11/29 10:40:16;;;;;;;8.60;1.02;;;;;;;;;;5053140;28;20071;-66
2021/11/29 10:42:42;;;;;;;1.80;0.82;;;;;;;;;;5048697;28;20067;-66
2021/11/29 10:45:18;;;;;;;2.90;1.00;;;;;;;;;;5057884;28;20913;-66
2021/11/29 10:47:48;;;;;;;3.42;1.08;;;;;;;;;;5051024;28;20060;-66
2021/11/29 10:50:15;;;;;;;5.30;1.55;;;;;;;;;;5059170;28;20460;-67
2021/11/29 10:52:45;;;;;;;3.60;1.10;;;;;;;;;;5044996;28;20076;-66
2021/11/29 10:55:12;;;;;;;4.50;1.45;;;;;;;;;;5053776;28;20052;-66
2021/11/29 10:57:50;;;;;;;5.88;1.27;;;;;;;;;;5057414;28;20044;-66
2021/11/29 11:00:17;;;;;;;3.72;1.02;;;;;;;;;;5054243;28;20044;-66
2021/11/29 11:02:59;;;;;;;1.05;0.63;;;;;;;;;;5057497;28;20848;-66
2021/11/29 11:05:25;;;;;;;2.78;0.90;;;;;;;;;;5041986;28;20045;-67
2021/11/29 11:07:52;;;;;;;5.18;1.27;;;;;;;;;;5050540;28;20055;-66
2021/11/29 11:10:20;;;;;;;4.22;1.08;;;;;;;;;;5047039;28;20052;-66
2021/11/29 11:12:57;;;;;;;3.80;1.00;;;;;;;;;;5057262;28;20053;-67
2021/11/29 11:15:24;;;;;;;2.92;0.90;;;;;;;;;;5049638;28;20072;-66
2021/11/29 11:18:08;;;;;;;3.83;1.02;;;;;;;;;;5057881;28;20053;-67
2021/11/29 11:20:35;;;;;;;2.47;1.15;;;;;;;;;;5051911;28;20049;-66
2021/11/29 11:23:01;;;;;;;2.97;0.90;;;;;;;;;;5046843;28;20044;-66
2021/11/29 11:25:35;;;;;;;4.43;1.25;;;;;;;;;;5056632;28;20045;-67
2021/11/29 11:28:04;;;;;;;5.43;1.35;;;;;;;;;;5048218;28;20052;-66
2021/11/29 11:30:33;;;;;;;7.13;1.30;;;;;;;;;;5059038;28;20095;-66
2021/11/29 11:33:05;;;;;;;4.38;1.30;;;;;;;;;;5049746;28;20044;-66
2021/11/29 11:35:37;;;;;;;6.33;1.50;;;;;;;;;;5052672;28;20139;-66
2021/11/29 11:38:05;;;;;;;5.00;1.38;;;;;;;;;;5054478;28;20055;-66
2021/11/29 11:40:34;;;;;;;3.08;1.50;;;;;;;;;;5059377;28;20052;-66
2021/11/29 11:43:01;;;;;;;4.20;1.45;;;;;;;;;;5059017;28;20726;-66
2021/11/29 11:45:29;;;;;;;10.90;2.13;;;;;;;;;;5050582;28;20489;-66
2021/11/29 11:48:00;;;;;;;4.70;1.35;;;;;;;;;;5051961;28;20079;-66
2021/11/29 11:50:28;;;;;;;4.93;1.20;;;;;;;;;;5051064;28;20049;-66
2021/11/29 11:52:58;;;;;;;2.83;1.00;;;;;;;;;;5056339;28;20052;-66
2021/11/29 11:55:31;;;;;;;2.88;1.20;;;;;;;;;;5050503;28;20052;-66
2021/11/29 11:57:58;;;;;;;2.60;1.08;;;;;;;;;;5056783;28;20095;-66
2021/11/29 12:00:30;;;;;;;1.60;1.10;;;;;;;;;;5052794;28;20055;-66
2021/11/29 12:03:06;;;;;;;5.10;1.50;;;;;;;;;;5045883;28;20055;-66
2021/11/29 12:05:34;;;;;;;5.35;1.40;;;;;;;;;;5056368;28;20453;-66
2021/11/29 12:08:47;;;;;;;6.68;1.10;;;;;;;;;;5051010;28;20459;-66
2021/11/29 12:11:19;;;;;;;2.00;1.23;;;;;;;;;;5059116;28;20110;-66
2021/11/29 12:13:46;;;;;;;2.78;1.00;;;;;;;;;;5053428;28;20049;-66
2021/11/29 12:16:12;;;;;;;4.45;1.40;;;;;;;;;;5054233;28;20565;-65
2021/11/29 12:18:39;;;;;;;5.85;1.23;;;;;;;;;;5052330;28;20044;-65
2021/11/29 12:21:24;;;;;;;3.17;1.25;;;;;;;;;;5060599;28;20052;-65
2021/11/29 12:23:50;;;;;;;3.53;1.30;;;;;;;;;;5053070;28;20052;-65
2021/11/29 12:26:17;;;;;;;4.50;1.20;;;;;;;;;;5042418;28;20472;-65
2021/11/29 12:28:44;;;;;;;6.80;1.38;;;;;;;;;;5053766;28;20052;-65
2021/11/29 12:31:29;;;;;;;4.55;1.48;;;;;;;;;;5046913;28;20119;-65
2021/11/29 12:34:04;;;;;;;4.13;1.50;;;;;;;;;;5060447;28;20068;-65
2021/11/29 12:36:50;;;;;;;2.70;1.10;;;;;;;;;;5052181;28;20058;-65
2021/11/29 12:39:37;;;;;;;3.35;1.33;;;;;;;;;;5048412;28;20057;-65
2021/11/29 12:42:03;;;;;;;4.70;1.30;;;;;;;;;;5037555;28;20624;-65
2021/11/29 12:44:45;;;;;;;2.95;1.30;;;;;;;;;;5055378;28;20405;-65
2021/11/29 12:47:15;;;;;;;3.67;1.50;;;;;;;;;;5050195;28;20056;-65
2021/11/29 12:49:47;;;;;;;3.08;1.42;;;;;;;;;;5059790;28;20451;-65
2021/11/29 12:52:40;;;;;;;4.47;1.50;;;;;;;;;;5051353;28;20048;-65
2021/11/29 12:55:18;;;;;;;4.95;1.30;;;;;;;;;;5054636;28;20351;-65
2021/11/29 12:57:46;;;;;;;2.83;1.33;;;;;;;;;;5052789;28;20147;-65
2021/11/29 13:00:18;;;;;;;5.85;1.40;;;;;;;;;;5049697;28;20052;-65
2021/11/29 13:02:44;;;;;;;5.45;1.50;;;;;;;;;;5059497;28;20048;-65
2021/11/29 13:05:23;;;;;;;2.20;1.25;;;;;;;;;;5050098;28;20060;-65
2021/11/29 13:07:56;;;;;;;3.42;1.70;;;;;;;;;;5060187;28;20056;-65
2021/11/29 13:10:41;;;;;;;8.32;3.33;;;;;;;;;;5047967;28;20056;-65
2021/11/29 13:13:26;;;;;;;4.72;1.67;;;;;;;;;;5055044;28;20045;-65
2021/11/29 13:15:54;;;;;;;3.95;1.60;;;;;;;;;;5051143;28;20052;-66
2021/11/29 13:18:39;;;;;;;3.22;1.65;;;;;;;;;;5060267;28;20088;-66
2021/11/29 13:21:05;;;;;;;5.68;3.20;;;;;;;;;;5051900;28;20055;-66
2021/11/29 13:23:32;;;;;;;3.95;1.50;;;;;;;;;;5058831;28;20437;-65
2021/11/29 13:26:03;;;;;;;4.50;2.17;;;;;;;;;;5052686;28;20517;-65
2021/11/29 13:28:30;;;;;;;2.53;1.60;;;;;;;;;;5051629;28;20047;-66
2021/11/29 13:30:56;;;;;;;9.43;1.95;;;;;;;;;;5058844;28;20040;-65
2021/11/29 13:33:23;;;;;;;4.55;1.90;;;;;;;;;;5033053;28;20052;-66
2021/11/29 13:35:49;;;;;;;2.90;1.35;;;;;;;;;;5059725;28;20151;-66
2021/11/29 13:38:22;;;;;;;4.10;1.77;;;;;;;;;;5047738;28;20048;-66
2021/11/29 13:40:49;;;;;;;3.47;1.75;;;;;;;;;;5054563;28;20065;-65
2021/11/29 13:43:23;;;;;;;4.65;1.60;;;;;;;;;;5059330;28;20051;-66
2021/11/29 13:45:49;;;;;;;2.53;1.52;;;;;;;;;;5051692;28;20053;-66
2021/11/29 13:48:16;;;;;;;2.78;1.52;;;;;;;;;;5061347;28;20045;-66
2021/11/29 13:50:45;;;;;;;3.67;1.70;;;;;;;;;;5054150;28;20037;-65
2021/11/29 13:53:14;;;;;;;4.57;1.77;;;;;;;;;;5056154;28;20052;-65
2021/11/29 13:55:42;;;;;;;3.25;1.80;;;;;;;;;;5047806;28;20417;-66
2021/11/29 13:58:15;;;;;;;3.53;2.40;;;;;;;;;;5059909;28;20044;-67
2021/11/29 14:00:42;;;;;;;5.93;2.03;;;;;;;;;;5060520;28;20508;-67
2021/11/29 14:03:11;;;;;;;5.47;2.00;;;;;;;;;;5055719;28;20656;-67
2021/11/29 14:05:40;;;;;;;3.33;1.75;;;;;;;;;;5058146;28;20061;-66
2021/11/29 14:08:06;;;;;;;;;;;;;;;;;;5054898;28;20040;-67
2021/11/29 14:10:41;;;;;;;6.18;3.13;;;;;;;;;;5062179;28;20254;-67
2021/11/29 14:13:09;;;;;;;4.38;2.22;;;;;;;;;;5052972;28;20052;-66
2021/11/29 14:15:54;;;;;;;5.35;2.00;;;;;;;;;;5059913;28;20048;-67
2021/11/29 14:18:21;;;;;;;4.97;2.17;;;;;;;;;;5047284;28;20067;-66
2021/11/29 14:20:52;;;;;;;7.05;2.10;;;;;;;;;;5058618;28;20048;-66
2021/11/29 14:23:19;;;;;;;6.82;2.20;;;;;;;;;;5060002;28;20635;-67
2021/11/29 14:25:45;;;;;;;4.13;2.20;;;;;;;;;;5050813;28;20418;-66
2021/11/29 14:28:12;;;;;;;7.35;2.60;;;;;;;;;;5058863;28;20057;-67
2021/11/29 14:30:57;;;;;;;6.80;2.55;;;;;;;;;;5045462;28;20076;-65
2021/11/29 14:33:24;;;;;;;8.73;3.22;;;;;;;;;;5053698;28;20337;-66
2021/11/29 14:35:51;;;;;;;6.40;2.45;;;;;;;;;;5051053;28;20516;-66
2021/11/29 14:38:17;;;;;;;8.63;2.60;;;;;;;;;;5057461;28;20083;-66
2021/11/29 14:40:43;;;;;;;6.22;2.60;;;;;;;;;;5056148;28;20490;-66
2021/11/29 14:43:10;;;;;;;8.52;2.90;;;;;;;;;;5052111;28;20558;-66
2021/11/29 14:45:36;;;;;;;11.77;3.20;;;;;;;;;;5050356;28;20072;-66
2021/11/29 14:48:03;;;;;;;5.78;3.10;;;;;;;;;;5045427;28;20059;-66
2021/11/29 14:50:31;;;;;;;6.60;3.00;;;;;;;;;;5057915;28;20048;-66